Terminal Aerodrome Forecast
Issued by NWS St Louis, MO

Home | Current Version | Previous Version | Text Only | Print | Product List | Glossary On
Versions: 1 2 3 4 5 6 7 8 9 10 11 12 13 14 15 16
000
FTUS43 KLSX 251700
TAFCOU
TAF
KCOU 251724Z 2518/2618 18012KT P6SM SCT030 SCT250
     FM260800 16006KT 6SM -SHRA VCTS BKN020CB
     FM261200 21010KT P6SM SCT025 OVC040=

USA.gov is the U.S. government's official web portal to all federal, state and local government web resources and services.